University Buffalo, New York
Current Conditions -  °F | °C
As of 2:54 AM on Tuesday 27 Jan 2015 (Local Time) from KBUF Reporting Station
Light Snow Light Snow  
Wind Chill:   Ceiling: 6500
Heat Index: 16°   Visibility: 4mi
Dew Point: 11°   Wind: 9mph
Humidity: 81%   Direction: 20°NNE
Pressure: 29.91"   Gusts: NA
Location:  42.9393°N, 78.8401°W
Report Text: KBUF 270754Z 02008KT 4SM -SN FEW021 OVC065 M09/M12 A2991 RMK AO2 SLP142 P0000 T10891117 $
Loading
Personal Weather Stations






























Interactive Weather Map New forecast layout! Learn more

10-Day Weather Forecast

Advertisements
Track Severe Weather on mobile